sensor_id;sensor_type;location;lat;lon;timestamp;P1;durP1;ratioP1;P2;durP2;ratioP2
29662;SDS011;16578;53.266;7.920;2022-08-01T00:00:39;4.07;;;3.13;;
29662;SDS011;16578;53.266;7.920;2022-08-01T00:03:05;4.97;;;3.70;;
29662;SDS011;16578;53.266;7.920;2022-08-01T00:05:30;4.00;;;3.60;;
29662;SDS011;16578;53.266;7.920;2022-08-01T00:07:56;4.35;;;3.70;;
29662;SDS011;16578;53.266;7.920;2022-08-01T00:10:22;4.22;;;3.88;;
29662;SDS011;16578;53.266;7.920;2022-08-01T00:12:47;5.55;;;4.20;;
29662;SDS011;16578;53.266;7.920;2022-08-01T00:15:14;13.73;;;5.25;;
29662;SDS011;16578;53.266;7.920;2022-08-01T00:17:41;4.70;;;3.73;;
29662;SDS011;16578;53.266;7.920;2022-08-01T00:20:09;4.63;;;4.22;;
29662;SDS011;16578;53.266;7.920;2022-08-01T00:22:36;5.13;;;4.63;;
29662;SDS011;16578;53.266;7.920;2022-08-01T00:25:02;4.82;;;4.40;;
29662;SDS011;16578;53.266;7.920;2022-08-01T00:27:29;5.00;;;4.47;;
29662;SDS011;16578;53.266;7.920;2022-08-01T00:29:54;4.82;;;4.22;;
29662;SDS011;16578;53.266;7.920;2022-08-01T00:32:20;5.03;;;4.53;;
29662;SDS011;16578;53.266;7.920;2022-08-01T00:34:45;5.68;;;5.00;;
29662;SDS011;16578;53.266;7.920;2022-08-01T00:37:11;5.78;;;5.15;;
29662;SDS011;16578;53.266;7.920;2022-08-01T00:39:36;9.40;;;5.75;;
29662;SDS011;16578;53.266;7.920;2022-08-01T00:42:05;6.53;;;5.35;;
29662;SDS011;16578;53.266;7.920;2022-08-01T00:44:32;6.50;;;5.90;;
29662;SDS011;16578;53.266;7.920;2022-08-01T00:46:57;6.85;;;4.65;;
29662;SDS011;16578;53.266;7.920;2022-08-01T00:49:23;7.10;;;5.25;;
29662;SDS011;16578;53.266;7.920;2022-08-01T00:51:48;5.53;;;4.55;;
29662;SDS011;16578;53.266;7.920;2022-08-01T00:54:14;4.10;;;3.40;;
29662;SDS011;16578;53.266;7.920;2022-08-01T00:56:40;3.78;;;3.33;;
29662;SDS011;16578;53.266;7.920;2022-08-01T00:59:06;4.00;;;2.60;;
29662;SDS011;16578;53.266;7.920;2022-08-01T01:01:33;4.47;;;2.80;;
29662;SDS011;16578;53.266;7.920;2022-08-01T01:03:59;2.72;;;2.42;;
29662;SDS011;16578;53.266;7.920;2022-08-01T01:12:37;3.35;;;2.72;;
29662;SDS011;16578;53.266;7.920;2022-08-01T01:17:57;4.38;;;3.38;;
29662;SDS011;16578;53.266;7.920;2022-08-01T01:20:35;3.83;;;2.92;;
29662;SDS011;16578;53.266;7.920;2022-08-01T01:31:18;3.65;;;3.25;;
29662;SDS011;16578;53.266;7.920;2022-08-01T01:33:46;3.22;;;2.92;;
29662;SDS011;16578;53.266;7.920;2022-08-01T01:36:13;3.08;;;2.70;;
29662;SDS011;16578;53.266;7.920;2022-08-01T01:38:42;2.88;;;2.38;;
29662;SDS011;16578;53.266;7.920;2022-08-01T01:41:12;1.95;;;1.85;;
29662;SDS011;16578;53.266;7.920;2022-08-01T01:43:40;2.55;;;1.70;;
29662;SDS011;16578;53.266;7.920;2022-08-01T01:46:07;1.30;;;1.17;;
29662;SDS011;16578;53.266;7.920;2022-08-01T01:48:35;1.25;;;1.15;;
29662;SDS011;16578;53.266;7.920;2022-08-01T01:51:02;2.95;;;1.23;;
29662;SDS011;16578;53.266;7.920;2022-08-01T01:53:29;1.60;;;1.42;;
29662;SDS011;16578;53.266;7.920;2022-08-01T01:55:57;3.45;;;1.23;;
29662;SDS011;16578;53.266;7.920;2022-08-01T01:58:24;1.42;;;1.33;;
29662;SDS011;16578;53.266;7.920;2022-08-01T02:00:52;1.40;;;1.30;;
29662;SDS011;16578;53.266;7.920;2022-08-01T02:03:20;1.40;;;1.30;;
29662;SDS011;16578;53.266;7.920;2022-08-01T02:05:47;1.88;;;1.35;;
29662;SDS011;16578;53.266;7.920;2022-08-01T02:08:16;2.05;;;1.73;;
29662;SDS011;16578;53.266;7.920;2022-08-01T02:10:42;2.17;;;2.00;;
29662;SDS011;16578;53.266;7.920;2022-08-01T02:13:33;1.87;;;1.77;;
29662;SDS011;16578;53.266;7.920;2022-08-01T02:16:01;1.77;;;1.58;;
29662;SDS011;16578;53.266;7.920;2022-08-01T02:18:28;2.90;;;2.10;;
29662;SDS011;16578;53.266;7.920;2022-08-01T02:20:55;2.60;;;2.30;;
29662;SDS011;16578;53.266;7.920;2022-08-01T02:23:22;1.90;;;1.80;;
29662;SDS011;16578;53.266;7.920;2022-08-01T02:25:53;2.20;;;2.03;;
29662;SDS011;16578;53.266;7.920;2022-08-01T02:28:24;2.10;;;1.98;;
29662;SDS011;16578;53.266;7.920;2022-08-01T02:30:54;3.63;;;1.85;;
29662;SDS011;16578;53.266;7.920;2022-08-01T02:33:27;2.85;;;2.50;;
29662;SDS011;16578;53.266;7.920;2022-08-01T02:36:06;2.45;;;2.00;;
29662;SDS011;16578;53.266;7.920;2022-08-01T02:38:34;2.40;;;2.20;;
29662;SDS011;16578;53.266;7.920;2022-08-01T02:41:04;3.10;;;2.10;;
29662;SDS011;16578;53.266;7.920;2022-08-01T02:43:34;3.00;;;2.70;;
29662;SDS011;16578;53.266;7.920;2022-08-01T02:46:06;3.92;;;2.50;;
29662;SDS011;16578;53.266;7.920;2022-08-01T02:48:34;2.72;;;2.40;;
29662;SDS011;16578;53.266;7.920;2022-08-01T02:51:03;3.65;;;2.58;;
29662;SDS011;16578;53.266;7.920;2022-08-01T02:53:32;6.07;;;2.38;;
29662;SDS011;16578;53.266;7.920;2022-08-01T02:56:02;2.42;;;2.13;;
29662;SDS011;16578;53.266;7.920;2022-08-01T02:58:29;3.50;;;2.30;;
29662;SDS011;16578;53.266;7.920;2022-08-01T03:00:56;2.95;;;2.47;;
29662;SDS011;16578;53.266;7.920;2022-08-01T03:03:23;2.95;;;2.05;;
29662;SDS011;16578;53.266;7.920;2022-08-01T03:05:49;5.05;;;2.00;;
29662;SDS011;16578;53.266;7.920;2022-08-01T03:08:15;2.78;;;1.70;;
29662;SDS011;16578;53.266;7.920;2022-08-01T03:10:42;1.52;;;1.27;;
29662;SDS011;16578;53.266;7.920;2022-08-01T03:13:10;2.42;;;1.38;;
29662;SDS011;16578;53.266;7.920;2022-08-01T03:15:38;5.07;;;1.30;;
29662;SDS011;16578;53.266;7.920;2022-08-01T03:18:07;4.57;;;1.75;;
29662;SDS011;16578;53.266;7.920;2022-08-01T03:20:36;5.53;;;1.70;;
29662;SDS011;16578;53.266;7.920;2022-08-01T03:23:06;2.80;;;1.17;;
29662;SDS011;16578;53.266;7.920;2022-08-01T03:25:34;3.53;;;1.33;;
29662;SDS011;16578;53.266;7.920;2022-08-01T03:28:03;4.05;;;1.48;;
29662;SDS011;16578;53.266;7.920;2022-08-01T03:30:31;2.45;;;1.35;;
29662;SDS011;16578;53.266;7.920;2022-08-01T03:32:58;3.47;;;1.65;;
29662;SDS011;16578;53.266;7.920;2022-08-01T03:35:26;2.85;;;1.40;;
29662;SDS011;16578;53.266;7.920;2022-08-01T03:37:56;3.97;;;1.63;;
29662;SDS011;16578;53.266;7.920;2022-08-01T03:40:35;3.17;;;2.10;;
29662;SDS011;16578;53.266;7.920;2022-08-01T03:43:11;3.60;;;1.60;;
29662;SDS011;16578;53.266;7.920;2022-08-01T03:45:42;4.50;;;2.20;;
29662;SDS011;16578;53.266;7.920;2022-08-01T03:48:13;4.30;;;1.98;;
29662;SDS011;16578;53.266;7.920;2022-08-01T03:50:43;4.68;;;1.52;;
29662;SDS011;16578;53.266;7.920;2022-08-01T03:53:15;3.65;;;1.73;;
29662;SDS011;16578;53.266;7.920;2022-08-01T03:55:44;6.57;;;2.25;;
29662;SDS011;16578;53.266;7.920;2022-08-01T03:58:09;3.60;;;1.83;;
29662;SDS011;16578;53.266;7.920;2022-08-01T04:00:37;5.43;;;2.20;;
29662;SDS011;16578;53.266;7.920;2022-08-01T04:03:04;4.38;;;2.00;;
29662;SDS011;16578;53.266;7.920;2022-08-01T04:05:31;3.95;;;2.00;;
29662;SDS011;16578;53.266;7.920;2022-08-01T04:07:57;6.55;;;2.20;;
29662;SDS011;16578;53.266;7.920;2022-08-01T04:10:24;4.47;;;1.80;;
29662;SDS011;16578;53.266;7.920;2022-08-01T04:12:50;3.33;;;2.20;;
29662;SDS011;16578;53.266;7.920;2022-08-01T04:15:16;4.85;;;2.08;;
29662;SDS011;16578;53.266;7.920;2022-08-01T04:17:42;4.20;;;2.05;;
29662;SDS011;16578;53.266;7.920;2022-08-01T04:20:08;6.00;;;2.63;;
29662;SDS011;16578;53.266;7.920;2022-08-01T04:22:34;5.40;;;1.92;;
29662;SDS011;16578;53.266;7.920;2022-08-01T04:25:00;5.80;;;2.42;;
29662;SDS011;16578;53.266;7.920;2022-08-01T04:27:31;7.65;;;2.40;;
29662;SDS011;16578;53.266;7.920;2022-08-01T04:30:00;5.78;;;2.03;;
29662;SDS011;16578;53.266;7.920;2022-08-01T04:32:27;6.97;;;2.65;;
29662;SDS011;16578;53.266;7.920;2022-08-01T04:34:56;10.00;;;2.80;;
29662;SDS011;16578;53.266;7.920;2022-08-01T04:37:24;6.20;;;3.13;;
29662;SDS011;16578;53.266;7.920;2022-08-01T04:39:51;6.55;;;3.03;;
29662;SDS011;16578;53.266;7.920;2022-08-01T04:42:19;5.78;;;2.30;;
29662;SDS011;16578;53.266;7.920;2022-08-01T04:44:46;5.13;;;2.42;;
29662;SDS011;16578;53.266;7.920;2022-08-01T04:47:11;6.80;;;2.63;;
29662;SDS011;16578;53.266;7.920;2022-08-01T04:49:38;8.77;;;2.72;;
29662;SDS011;16578;53.266;7.920;2022-08-01T04:52:05;7.28;;;2.72;;
29662;SDS011;16578;53.266;7.920;2022-08-01T04:54:32;7.88;;;3.15;;
29662;SDS011;16578;53.266;7.920;2022-08-01T04:57:01;6.18;;;2.55;;
29662;SDS011;16578;53.266;7.920;2022-08-01T04:59:28;6.93;;;2.97;;
29662;SDS011;16578;53.266;7.920;2022-08-01T05:02:06;9.77;;;3.13;;
29662;SDS011;16578;53.266;7.920;2022-08-01T05:04:33;9.75;;;2.67;;
29662;SDS011;16578;53.266;7.920;2022-08-01T05:06:59;9.43;;;3.10;;
29662;SDS011;16578;53.266;7.920;2022-08-01T05:09:24;7.60;;;2.60;;
29662;SDS011;16578;53.266;7.920;2022-08-01T05:11:50;6.53;;;2.45;;
29662;SDS011;16578;53.266;7.920;2022-08-01T05:14:16;6.85;;;2.88;;
29662;SDS011;16578;53.266;7.920;2022-08-01T05:16:42;8.40;;;2.85;;
29662;SDS011;16578;53.266;7.920;2022-08-01T05:19:07;8.40;;;2.90;;
29662;SDS011;16578;53.266;7.920;2022-08-01T05:21:33;10.77;;;2.67;;
29662;SDS011;16578;53.266;7.920;2022-08-01T05:24:00;8.18;;;2.60;;
29662;SDS011;16578;53.266;7.920;2022-08-01T05:26:25;6.50;;;2.60;;
29662;SDS011;16578;53.266;7.920;2022-08-01T05:28:51;6.70;;;2.80;;
29662;SDS011;16578;53.266;7.920;2022-08-01T05:31:16;9.63;;;3.20;;
29662;SDS011;16578;53.266;7.920;2022-08-01T05:33:42;8.98;;;2.95;;
29662;SDS011;16578;53.266;7.920;2022-08-01T05:36:07;12.27;;;3.40;;
29662;SDS011;16578;53.266;7.920;2022-08-01T05:38:33;7.60;;;3.10;;
29662;SDS011;16578;53.266;7.920;2022-08-01T05:40:58;10.45;;;3.05;;
29662;SDS011;16578;53.266;7.920;2022-08-01T05:43:24;6.32;;;2.80;;
29662;SDS011;16578;53.266;7.920;2022-08-01T05:45:49;14.27;;;3.15;;
29662;SDS011;16578;53.266;7.920;2022-08-01T05:48:15;10.48;;;2.72;;
29662;SDS011;16578;53.266;7.920;2022-08-01T05:50:41;10.68;;;2.95;;
29662;SDS011;16578;53.266;7.920;2022-08-01T05:53:07;12.40;;;2.95;;
29662;SDS011;16578;53.266;7.920;2022-08-01T05:55:32;14.48;;;3.38;;
29662;SDS011;16578;53.266;7.920;2022-08-01T05:57:58;8.95;;;3.72;;
29662;SDS011;16578;53.266;7.920;2022-08-01T06:00:23;11.68;;;3.45;;
29662;SDS011;16578;53.266;7.920;2022-08-01T06:02:49;10.38;;;3.45;;
29662;SDS011;16578;53.266;7.920;2022-08-01T06:05:15;8.95;;;2.97;;
29662;SDS011;16578;53.266;7.920;2022-08-01T06:07:41;11.00;;;3.42;;
29662;SDS011;16578;53.266;7.920;2022-08-01T06:10:07;13.15;;;3.88;;
29662;SDS011;16578;53.266;7.920;2022-08-01T06:12:33;13.77;;;3.28;;
29662;SDS011;16578;53.266;7.920;2022-08-01T06:14:59;13.25;;;3.45;;
29662;SDS011;16578;53.266;7.920;2022-08-01T06:17:24;8.85;;;3.35;;
29662;SDS011;16578;53.266;7.920;2022-08-01T06:19:50;11.48;;;3.65;;
29662;SDS011;16578;53.266;7.920;2022-08-01T06:22:16;11.65;;;4.30;;
29662;SDS011;16578;53.266;7.920;2022-08-01T06:24:41;12.88;;;3.70;;
29662;SDS011;16578;53.266;7.920;2022-08-01T06:27:07;11.43;;;3.63;;
29662;SDS011;16578;53.266;7.920;2022-08-01T06:29:32;14.13;;;3.40;;
29662;SDS011;16578;53.266;7.920;2022-08-01T06:31:58;10.73;;;3.38;;
29662;SDS011;16578;53.266;7.920;2022-08-01T06:34:24;11.82;;;3.72;;
29662;SDS011;16578;53.266;7.920;2022-08-01T06:36:49;12.88;;;3.60;;
29662;SDS011;16578;53.266;7.920;2022-08-01T06:39:15;15.68;;;4.15;;
29662;SDS011;16578;53.266;7.920;2022-08-01T06:41:40;9.15;;;2.97;;
29662;SDS011;16578;53.266;7.920;2022-08-01T06:44:06;8.73;;;3.17;;
29662;SDS011;16578;53.266;7.920;2022-08-01T06:46:32;8.40;;;3.00;;
29662;SDS011;16578;53.266;7.920;2022-08-01T06:48:59;13.68;;;3.90;;
29662;SDS011;16578;53.266;7.920;2022-08-01T06:51:24;19.10;;;4.60;;
29662;SDS011;16578;53.266;7.920;2022-08-01T06:53:50;16.80;;;4.38;;
29662;SDS011;16578;53.266;7.920;2022-08-01T06:56:15;16.02;;;4.00;;
29662;SDS011;16578;53.266;7.920;2022-08-01T06:58:41;10.30;;;3.42;;
29662;SDS011;16578;53.266;7.920;2022-08-01T07:01:06;12.25;;;3.90;;
29662;SDS011;16578;53.266;7.920;2022-08-01T07:03:32;14.55;;;3.58;;
29662;SDS011;16578;53.266;7.920;2022-08-01T07:05:58;11.43;;;3.03;;
29662;SDS011;16578;53.266;7.920;2022-08-01T07:08:24;11.27;;;3.42;;
29662;SDS011;16578;53.266;7.920;2022-08-01T07:10:49;8.45;;;3.17;;
29662;SDS011;16578;53.266;7.920;2022-08-01T07:13:15;14.13;;;3.50;;
29662;SDS011;16578;53.266;7.920;2022-08-01T07:15:45;12.02;;;3.40;;
29662;SDS011;16578;53.266;7.920;2022-08-01T07:18:11;11.30;;;3.13;;
29662;SDS011;16578;53.266;7.920;2022-08-01T07:20:37;11.50;;;3.58;;
29662;SDS011;16578;53.266;7.920;2022-08-01T07:23:03;12.10;;;3.85;;
29662;SDS011;16578;53.266;7.920;2022-08-01T07:25:28;12.48;;;4.15;;
29662;SDS011;16578;53.266;7.920;2022-08-01T07:27:54;12.13;;;3.42;;
29662;SDS011;16578;53.266;7.920;2022-08-01T07:30:20;12.00;;;3.22;;
29662;SDS011;16578;53.266;7.920;2022-08-01T07:32:45;12.30;;;3.08;;
29662;SDS011;16578;53.266;7.920;2022-08-01T07:35:11;10.50;;;3.40;;
29662;SDS011;16578;53.266;7.920;2022-08-01T07:37:36;11.80;;;3.58;;
29662;SDS011;16578;53.266;7.920;2022-08-01T07:40:03;9.07;;;3.03;;
29662;SDS011;16578;53.266;7.920;2022-08-01T07:42:30;13.25;;;3.45;;
29662;SDS011;16578;53.266;7.920;2022-08-01T07:44:56;10.88;;;3.25;;
29662;SDS011;16578;53.266;7.920;2022-08-01T07:47:24;9.68;;;3.08;;
29662;SDS011;16578;53.266;7.920;2022-08-01T07:49:51;15.50;;;4.05;;
29662;SDS011;16578;53.266;7.920;2022-08-01T07:52:17;11.70;;;3.47;;
29662;SDS011;16578;53.266;7.920;2022-08-01T07:54:43;9.88;;;3.70;;
29662;SDS011;16578;53.266;7.920;2022-08-01T07:57:08;18.38;;;3.50;;
29662;SDS011;16578;53.266;7.920;2022-08-01T07:59:34;14.05;;;3.15;;
29662;SDS011;16578;53.266;7.920;2022-08-01T08:02:00;9.75;;;3.03;;
29662;SDS011;16578;53.266;7.920;2022-08-01T08:04:26;6.88;;;3.35;;
29662;SDS011;16578;53.266;7.920;2022-08-01T08:06:52;10.45;;;3.17;;
29662;SDS011;16578;53.266;7.920;2022-08-01T08:09:18;10.23;;;2.95;;
29662;SDS011;16578;53.266;7.920;2022-08-01T08:11:44;9.52;;;2.90;;
29662;SDS011;16578;53.266;7.920;2022-08-01T08:14:10;8.55;;;3.30;;
29662;SDS011;16578;53.266;7.920;2022-08-01T08:16:36;7.68;;;2.53;;
29662;SDS011;16578;53.266;7.920;2022-08-01T08:19:02;16.92;;;3.85;;
29662;SDS011;16578;53.266;7.920;2022-08-01T08:21:28;9.73;;;3.17;;
29662;SDS011;16578;53.266;7.920;2022-08-01T08:23:56;10.75;;;3.45;;
29662;SDS011;16578;53.266;7.920;2022-08-01T08:26:40;13.52;;;3.42;;
29662;SDS011;16578;53.266;7.920;2022-08-01T08:29:06;11.88;;;2.75;;
29662;SDS011;16578;53.266;7.920;2022-08-01T08:31:32;9.27;;;2.67;;
29662;SDS011;16578;53.266;7.920;2022-08-01T08:33:58;12.30;;;3.45;;
29662;SDS011;16578;53.266;7.920;2022-08-01T08:36:23;14.35;;;2.85;;
29662;SDS011;16578;53.266;7.920;2022-08-01T08:38:49;10.15;;;2.90;;
29662;SDS011;16578;53.266;7.920;2022-08-01T08:41:15;6.72;;;2.17;;
29662;SDS011;16578;53.266;7.920;2022-08-01T08:43:40;10.88;;;3.20;;
29662;SDS011;16578;53.266;7.920;2022-08-01T08:46:06;9.20;;;2.70;;
29662;SDS011;16578;53.266;7.920;2022-08-01T08:48:33;10.75;;;2.42;;
29662;SDS011;16578;53.266;7.920;2022-08-01T08:51:00;10.98;;;2.60;;
29662;SDS011;16578;53.266;7.920;2022-08-01T08:53:26;10.52;;;2.63;;
29662;SDS011;16578;53.266;7.920;2022-08-01T08:55:52;7.00;;;2.65;;
29662;SDS011;16578;53.266;7.920;2022-08-01T08:58:20;7.30;;;2.50;;
29662;SDS011;16578;53.266;7.920;2022-08-01T09:00:46;9.80;;;2.20;;
29662;SDS011;16578;53.266;7.920;2022-08-01T09:03:12;7.32;;;2.70;;
29662;SDS011;16578;53.266;7.920;2022-08-01T09:05:38;9.07;;;2.78;;
29662;SDS011;16578;53.266;7.920;2022-08-01T09:08:07;15.63;;;2.95;;
29662;SDS011;16578;53.266;7.920;2022-08-01T09:10:33;10.10;;;2.50;;
29662;SDS011;16578;53.266;7.920;2022-08-01T09:13:12;7.10;;;2.55;;
29662;SDS011;16578;53.266;7.920;2022-08-01T09:18:25;7.13;;;2.50;;
29662;SDS011;16578;53.266;7.920;2022-08-01T09:21:14;13.65;;;2.78;;
29662;SDS011;16578;53.266;7.920;2022-08-01T09:23:43;6.20;;;2.20;;
29662;SDS011;16578;53.266;7.920;2022-08-01T09:26:33;6.97;;;2.05;;
29662;SDS011;16578;53.266;7.920;2022-08-01T09:28:58;16.08;;;2.20;;
29662;SDS011;16578;53.266;7.920;2022-08-01T09:31:26;8.57;;;2.55;;
29662;SDS011;16578;53.266;7.920;2022-08-01T09:36:24;8.18;;;2.10;;
29662;SDS011;16578;53.266;7.920;2022-08-01T09:38:50;7.78;;;2.55;;
29662;SDS011;16578;53.266;7.920;2022-08-01T09:41:17;8.93;;;2.40;;
29662;SDS011;16578;53.266;7.920;2022-08-01T09:43:54;8.07;;;2.47;;
29662;SDS011;16578;53.266;7.920;2022-08-01T09:46:20;6.88;;;1.98;;
29662;SDS011;16578;53.266;7.920;2022-08-01T09:51:29;6.35;;;2.13;;
29662;SDS011;16578;53.266;7.920;2022-08-01T09:53:55;8.00;;;2.42;;
29662;SDS011;16578;53.266;7.920;2022-08-01T09:56:21;10.40;;;2.65;;
29662;SDS011;16578;53.266;7.920;2022-08-01T09:58:51;12.82;;;2.67;;
29662;SDS011;16578;53.266;7.920;2022-08-01T10:01:19;7.88;;;2.35;;
29662;SDS011;16578;53.266;7.920;2022-08-01T10:03:47;7.78;;;2.38;;
29662;SDS011;16578;53.266;7.920;2022-08-01T10:06:28;7.53;;;2.50;;
29662;SDS011;16578;53.266;7.920;2022-08-01T10:08:53;5.85;;;1.83;;
29662;SDS011;16578;53.266;7.920;2022-08-01T10:11:19;5.53;;;1.75;;
29662;SDS011;16578;53.266;7.920;2022-08-01T10:13:46;9.75;;;2.75;;
29662;SDS011;16578;53.266;7.920;2022-08-01T10:16:13;8.23;;;2.30;;
29662;SDS011;16578;53.266;7.920;2022-08-01T10:18:39;7.32;;;1.92;;
29662;SDS011;16578;53.266;7.920;2022-08-01T10:21:06;6.78;;;2.22;;
29662;SDS011;16578;53.266;7.920;2022-08-01T10:23:36;6.00;;;1.90;;
29662;SDS011;16578;53.266;7.920;2022-08-01T10:26:03;4.68;;;1.90;;
29662;SDS011;16578;53.266;7.920;2022-08-01T10:28:30;12.67;;;2.60;;
29662;SDS011;16578;53.266;7.920;2022-08-01T10:30:59;3.88;;;1.58;;
29662;SDS011;16578;53.266;7.920;2022-08-01T10:33:26;4.70;;;2.05;;
29662;SDS011;16578;53.266;7.920;2022-08-01T10:35:54;5.30;;;1.70;;
29662;SDS011;16578;53.266;7.920;2022-08-01T10:38:19;5.88;;;1.90;;
29662;SDS011;16578;53.266;7.920;2022-08-01T10:40:45;7.70;;;2.15;;
29662;SDS011;16578;53.266;7.920;2022-08-01T10:43:11;5.80;;;2.00;;
29662;SDS011;16578;53.266;7.920;2022-08-01T10:45:39;5.18;;;2.08;;
29662;SDS011;16578;53.266;7.920;2022-08-01T10:48:24;8.07;;;2.00;;
29662;SDS011;16578;53.266;7.920;2022-08-01T10:50:57;7.53;;;2.17;;
29662;SDS011;16578;53.266;7.920;2022-08-01T10:53:26;11.95;;;2.15;;
29662;SDS011;16578;53.266;7.920;2022-08-01T11:00:48;6.35;;;1.95;;
29662;SDS011;16578;53.266;7.920;2022-08-01T11:03:14;5.32;;;1.75;;
29662;SDS011;16578;53.266;7.920;2022-08-01T11:05:39;9.40;;;2.05;;
29662;SDS011;16578;53.266;7.920;2022-08-01T11:08:26;9.10;;;2.33;;
29662;SDS011;16578;53.266;7.920;2022-08-01T11:10:59;11.05;;;2.40;;
29662;SDS011;16578;53.266;7.920;2022-08-01T11:16:26;6.35;;;1.92;;
29662;SDS011;16578;53.266;7.920;2022-08-01T11:18:53;7.30;;;2.05;;
29662;SDS011;16578;53.266;7.920;2022-08-01T11:21:18;3.80;;;2.13;;
29662;SDS011;16578;53.266;7.920;2022-08-01T11:23:48;10.25;;;2.20;;
29662;SDS011;16578;53.266;7.920;2022-08-01T11:26:15;5.90;;;1.80;;
29662;SDS011;16578;53.266;7.920;2022-08-01T11:28:41;8.20;;;2.50;;
29662;SDS011;16578;53.266;7.920;2022-08-01T11:51:56;7.68;;;2.20;;
29662;SDS011;16578;53.266;7.920;2022-08-01T11:54:26;5.72;;;1.77;;
29662;SDS011;16578;53.266;7.920;2022-08-01T11:56:55;6.85;;;2.20;;
29662;SDS011;16578;53.266;7.920;2022-08-01T11:59:24;10.30;;;3.28;;
29662;SDS011;16578;53.266;7.920;2022-08-01T12:01:50;8.13;;;3.05;;
29662;SDS011;16578;53.266;7.920;2022-08-01T12:04:15;12.75;;;2.30;;
29662;SDS011;16578;53.266;7.920;2022-08-01T12:06:41;8.10;;;2.78;;
29662;SDS011;16578;53.266;7.920;2022-08-01T12:09:17;6.57;;;2.00;;
29662;SDS011;16578;53.266;7.920;2022-08-01T12:11:46;5.78;;;1.88;;
29662;SDS011;16578;53.266;7.920;2022-08-01T12:14:16;5.18;;;1.90;;
29662;SDS011;16578;53.266;7.920;2022-08-01T12:16:53;4.82;;;1.80;;
29662;SDS011;16578;53.266;7.920;2022-08-01T12:19:23;4.82;;;1.98;;
29662;SDS011;16578;53.266;7.920;2022-08-01T12:24:51;6.32;;;2.08;;
29662;SDS011;16578;53.266;7.920;2022-08-01T12:27:24;7.43;;;2.03;;
29662;SDS011;16578;53.266;7.920;2022-08-01T12:29:51;8.52;;;1.92;;
29662;SDS011;16578;53.266;7.920;2022-08-01T12:32:23;5.30;;;1.90;;
29662;SDS011;16578;53.266;7.920;2022-08-01T12:34:56;8.85;;;2.08;;
29662;SDS011;16578;53.266;7.920;2022-08-01T12:37:49;5.50;;;2.00;;
29662;SDS011;16578;53.266;7.920;2022-08-01T12:40:16;4.70;;;2.10;;
29662;SDS011;16578;53.266;7.920;2022-08-01T12:42:48;9.57;;;2.25;;
29662;SDS011;16578;53.266;7.920;2022-08-01T12:45:17;4.53;;;1.67;;
29662;SDS011;16578;53.266;7.920;2022-08-01T12:47:45;5.43;;;1.92;;
29662;SDS011;16578;53.266;7.920;2022-08-01T12:50:13;4.93;;;1.97;;
29662;SDS011;16578;53.266;7.920;2022-08-01T12:52:40;7.70;;;2.25;;
29662;SDS011;16578;53.266;7.920;2022-08-01T12:57:44;5.55;;;1.98;;
29662;SDS011;16578;53.266;7.920;2022-08-01T13:00:21;6.37;;;2.00;;
29662;SDS011;16578;53.266;7.920;2022-08-01T13:02:50;3.95;;;1.58;;
29662;SDS011;16578;53.266;7.920;2022-08-01T13:05:26;4.13;;;1.65;;
29662;SDS011;16578;53.266;7.920;2022-08-01T13:07:52;7.25;;;1.75;;
29662;SDS011;16578;53.266;7.920;2022-08-01T13:10:28;6.45;;;1.83;;
29662;SDS011;16578;53.266;7.920;2022-08-01T13:12:57;8.60;;;1.85;;
29662;SDS011;16578;53.266;7.920;2022-08-01T13:15:28;4.53;;;1.88;;
29662;SDS011;16578;53.266;7.920;2022-08-01T13:17:58;5.60;;;1.80;;
29662;SDS011;16578;53.266;7.920;2022-08-01T13:23:16;4.43;;;1.45;;
29662;SDS011;16578;53.266;7.920;2022-08-01T13:25:53;5.35;;;1.88;;
29662;SDS011;16578;53.266;7.920;2022-08-01T13:28:21;5.45;;;2.20;;
29662;SDS011;16578;53.266;7.920;2022-08-01T13:30:56;4.32;;;1.42;;
29662;SDS011;16578;53.266;7.920;2022-08-01T13:33:24;3.40;;;1.58;;
29662;SDS011;16578;53.266;7.920;2022-08-01T13:35:55;5.15;;;1.60;;
29662;SDS011;16578;53.266;7.920;2022-08-01T13:38:21;8.57;;;2.00;;
29662;SDS011;16578;53.266;7.920;2022-08-01T13:41:06;5.03;;;2.05;;
29662;SDS011;16578;53.266;7.920;2022-08-01T13:43:31;6.45;;;1.65;;
29662;SDS011;16578;53.266;7.920;2022-08-01T13:45:57;4.80;;;1.80;;
29662;SDS011;16578;53.266;7.920;2022-08-01T13:48:23;5.72;;;1.70;;
29662;SDS011;16578;53.266;7.920;2022-08-01T13:50:48;4.65;;;1.67;;
29662;SDS011;16578;53.266;7.920;2022-08-01T13:53:14;7.30;;;1.60;;
29662;SDS011;16578;53.266;7.920;2022-08-01T13:55:39;6.38;;;1.63;;
29662;SDS011;16578;53.266;7.920;2022-08-01T13:58:05;4.47;;;2.10;;
29662;SDS011;16578;53.266;7.920;2022-08-01T14:00:31;6.93;;;1.55;;
29662;SDS011;16578;53.266;7.920;2022-08-01T14:02:57;4.38;;;1.60;;
29662;SDS011;16578;53.266;7.920;2022-08-01T14:05:22;4.45;;;1.90;;
29662;SDS011;16578;53.266;7.920;2022-08-01T14:07:48;7.32;;;1.70;;
29662;SDS011;16578;53.266;7.920;2022-08-01T14:10:13;4.13;;;1.60;;
29662;SDS011;16578;53.266;7.920;2022-08-01T14:12:39;6.22;;;2.30;;
29662;SDS011;16578;53.266;7.920;2022-08-01T14:15:05;3.80;;;1.45;;
29662;SDS011;16578;53.266;7.920;2022-08-01T14:17:32;4.55;;;1.63;;
29662;SDS011;16578;53.266;7.920;2022-08-01T14:19:57;6.82;;;1.98;;
29662;SDS011;16578;53.266;7.920;2022-08-01T14:22:24;2.92;;;1.50;;
29662;SDS011;16578;53.266;7.920;2022-08-01T14:24:49;6.25;;;1.98;;
29662;SDS011;16578;53.266;7.920;2022-08-01T14:27:15;6.15;;;1.92;;
29662;SDS011;16578;53.266;7.920;2022-08-01T14:29:40;4.28;;;1.67;;
29662;SDS011;16578;53.266;7.920;2022-08-01T14:32:06;3.55;;;1.63;;
29662;SDS011;16578;53.266;7.920;2022-08-01T14:34:31;5.35;;;1.90;;
29662;SDS011;16578;53.266;7.920;2022-08-01T14:36:57;4.75;;;1.83;;
29662;SDS011;16578;53.266;7.920;2022-08-01T14:39:22;5.07;;;1.52;;
29662;SDS011;16578;53.266;7.920;2022-08-01T14:41:48;5.13;;;2.28;;
29662;SDS011;16578;53.266;7.920;2022-08-01T14:44:14;5.38;;;1.70;;
29662;SDS011;16578;53.266;7.920;2022-08-01T14:46:39;7.15;;;1.92;;
29662;SDS011;16578;53.266;7.920;2022-08-01T14:49:06;6.00;;;1.52;;
29662;SDS011;16578;53.266;7.920;2022-08-01T14:51:31;6.03;;;1.60;;
29662;SDS011;16578;53.266;7.920;2022-08-01T14:53:59;2.80;;;1.30;;
29662;SDS011;16578;53.266;7.920;2022-08-01T14:56:24;3.75;;;1.67;;
29662;SDS011;16578;53.266;7.920;2022-08-01T14:58:50;3.42;;;1.33;;
29662;SDS011;16578;53.266;7.920;2022-08-01T15:01:16;4.07;;;1.60;;
29662;SDS011;16578;53.266;7.920;2022-08-01T15:03:42;4.30;;;1.58;;
29662;SDS011;16578;53.266;7.920;2022-08-01T15:06:08;3.83;;;1.60;;
29662;SDS011;16578;53.266;7.920;2022-08-01T15:08:36;6.37;;;2.03;;
29662;SDS011;16578;53.266;7.920;2022-08-01T15:11:02;5.13;;;1.60;;
29662;SDS011;16578;53.266;7.920;2022-08-01T15:13:27;5.25;;;1.63;;
29662;SDS011;16578;53.266;7.920;2022-08-01T15:15:53;7.32;;;1.95;;
29662;SDS011;16578;53.266;7.920;2022-08-01T15:18:18;7.10;;;1.95;;
29662;SDS011;16578;53.266;7.920;2022-08-01T15:20:44;7.00;;;2.00;;
29662;SDS011;16578;53.266;7.920;2022-08-01T15:23:10;4.25;;;1.58;;
29662;SDS011;16578;53.266;7.920;2022-08-01T15:25:36;6.70;;;2.03;;
29662;SDS011;16578;53.266;7.920;2022-08-01T15:28:01;5.82;;;1.95;;
29662;SDS011;16578;53.266;7.920;2022-08-01T15:30:27;5.20;;;2.10;;
29662;SDS011;16578;53.266;7.920;2022-08-01T15:32:53;6.18;;;1.83;;
29662;SDS011;16578;53.266;7.920;2022-08-01T15:35:18;6.05;;;1.60;;
29662;SDS011;16578;53.266;7.920;2022-08-01T15:37:44;11.20;;;2.38;;
29662;SDS011;16578;53.266;7.920;2022-08-01T15:40:10;3.28;;;1.48;;
29662;SDS011;16578;53.266;7.920;2022-08-01T15:42:36;3.67;;;1.63;;
29662;SDS011;16578;53.266;7.920;2022-08-01T15:45:02;3.90;;;1.70;;
29662;SDS011;16578;53.266;7.920;2022-08-01T15:47:28;6.43;;;1.70;;
29662;SDS011;16578;53.266;7.920;2022-08-01T15:49:54;3.83;;;1.52;;